sensor_id;sensor_type;location;lat;lon;timestamp;temperature;humidity
43679;DHT22;29279;50.858;4.392;2023-03-12T00:00:21;6.60;91.50
43679;DHT22;29279;50.858;4.392;2023-03-12T00:02:47;6.60;91.50
43679;DHT22;29279;50.858;4.392;2023-03-12T00:05:12;6.60;91.60
43679;DHT22;29279;50.858;4.392;2023-03-12T00:07:38;6.50;91.80
43679;DHT22;29279;50.858;4.392;2023-03-12T00:10:05;6.60;91.70
43679;DHT22;29279;50.858;4.392;2023-03-12T00:12:30;6.50;91.70
43679;DHT22;29279;50.858;4.392;2023-03-12T00:14:56;6.60;91.70
43679;DHT22;29279;50.858;4.392;2023-03-12T00:17:22;6.60;92.00
43679;DHT22;29279;50.858;4.392;2023-03-12T00:19:54;6.70;92.00
43679;DHT22;29279;50.858;4.392;2023-03-12T00:22:19;6.60;92.10
43679;DHT22;29279;50.858;4.392;2023-03-12T00:24:54;6.60;92.30
43679;DHT22;29279;50.858;4.392;2023-03-12T00:27:21;6.60;92.50
43679;DHT22;29279;50.858;4.392;2023-03-12T00:29:47;6.60;92.60
43679;DHT22;29279;50.858;4.392;2023-03-12T00:32:13;6.50;93.00
43679;DHT22;29279;50.858;4.392;2023-03-12T00:34:39;6.50;93.20
43679;DHT22;29279;50.858;4.392;2023-03-12T00:37:05;6.50;93.20
43679;DHT22;29279;50.858;4.392;2023-03-12T00:39:32;6.50;93.50
43679;DHT22;29279;50.858;4.392;2023-03-12T00:41:58;6.30;94.00
43679;DHT22;29279;50.858;4.392;2023-03-12T00:44:24;6.40;94.20
43679;DHT22;29279;50.858;4.392;2023-03-12T00:46:50;6.40;94.20
43679;DHT22;29279;50.858;4.392;2023-03-12T00:49:15;6.30;95.10
43679;DHT22;29279;50.858;4.392;2023-03-12T00:51:44;6.20;95.80
43679;DHT22;29279;50.858;4.392;2023-03-12T00:54:10;6.20;95.90
43679;DHT22;29279;50.858;4.392;2023-03-12T00:56:36;6.30;96.60
43679;DHT22;29279;50.858;4.392;2023-03-12T00:59:01;6.10;97.90
43679;DHT22;29279;50.858;4.392;2023-03-12T01:01:27;6.00;98.60
43679;DHT22;29279;50.858;4.392;2023-03-12T01:03:53;5.90;99.90
43679;DHT22;29279;50.858;4.392;2023-03-12T01:06:22;5.90;99.90
43679;DHT22;29279;50.858;4.392;2023-03-12T01:08:48;6.00;99.90
43679;DHT22;29279;50.858;4.392;2023-03-12T01:11:18;6.00;99.90
43679;DHT22;29279;50.858;4.392;2023-03-12T01:13:44;5.90;99.90
43679;DHT22;29279;50.858;4.392;2023-03-12T01:16:11;6.00;99.90
43679;DHT22;29279;50.858;4.392;2023-03-12T01:18:37;5.90;99.90
43679;DHT22;29279;50.858;4.392;2023-03-12T01:21:03;5.90;99.90
43679;DHT22;29279;50.858;4.392;2023-03-12T01:23:29;5.80;99.90
43679;DHT22;29279;50.858;4.392;2023-03-12T01:25:55;5.80;99.90
43679;DHT22;29279;50.858;4.392;2023-03-12T01:28:25;5.70;99.90
43679;DHT22;29279;50.858;4.392;2023-03-12T01:30:51;5.70;99.90
43679;DHT22;29279;50.858;4.392;2023-03-12T01:33:17;5.80;99.90
43679;DHT22;29279;50.858;4.392;2023-03-12T01:35:43;5.70;99.90
43679;DHT22;29279;50.858;4.392;2023-03-12T01:38:13;5.70;99.90
43679;DHT22;29279;50.858;4.392;2023-03-12T01:40:40;5.70;99.90
43679;DHT22;29279;50.858;4.392;2023-03-12T01:43:28;5.70;99.90
43679;DHT22;29279;50.858;4.392;2023-03-12T01:48:33;5.60;99.90
43679;DHT22;29279;50.858;4.392;2023-03-12T01:51:01;5.50;99.90
43679;DHT22;29279;50.858;4.392;2023-03-12T01:53:28;5.40;99.90
43679;DHT22;29279;50.858;4.392;2023-03-12T01:55:54;5.40;99.90
43679;DHT22;29279;50.858;4.392;2023-03-12T01:58:21;5.30;99.90
43679;DHT22;29279;50.858;4.392;2023-03-12T02:00:47;5.40;99.90
43679;DHT22;29279;50.858;4.392;2023-03-12T02:03:12;5.40;99.90
43679;DHT22;29279;50.858;4.392;2023-03-12T02:05:55;5.40;99.90
43679;DHT22;29279;50.858;4.392;2023-03-12T02:08:23;5.30;99.90
43679;DHT22;29279;50.858;4.392;2023-03-12T02:10:49;5.30;99.90
43679;DHT22;29279;50.858;4.392;2023-03-12T02:13:15;5.30;99.90
43679;DHT22;29279;50.858;4.392;2023-03-12T02:15:41;5.40;99.90
43679;DHT22;29279;50.858;4.392;2023-03-12T02:18:09;5.40;99.90
43679;DHT22;29279;50.858;4.392;2023-03-12T02:23:11;5.40;99.90
43679;DHT22;29279;50.858;4.392;2023-03-12T02:25:47;5.20;99.90
43679;DHT22;29279;50.858;4.392;2023-03-12T02:28:16;5.10;99.90
43679;DHT22;29279;50.858;4.392;2023-03-12T02:30:45;5.10;99.90
43679;DHT22;29279;50.858;4.392;2023-03-12T02:33:12;5.00;99.90
43679;DHT22;29279;50.858;4.392;2023-03-12T02:35:40;5.10;99.90
43679;DHT22;29279;50.858;4.392;2023-03-12T02:40:55;5.20;99.90
43679;DHT22;29279;50.858;4.392;2023-03-12T02:43:22;5.20;99.90
43679;DHT22;29279;50.858;4.392;2023-03-12T02:45:48;5.20;99.90
43679;DHT22;29279;50.858;4.392;2023-03-12T02:48:14;5.00;99.90
43679;DHT22;29279;50.858;4.392;2023-03-12T02:50:39;5.20;99.90
43679;DHT22;29279;50.858;4.392;2023-03-12T02:53:05;5.20;99.90
43679;DHT22;29279;50.858;4.392;2023-03-12T02:55:31;5.20;99.90
43679;DHT22;29279;50.858;4.392;2023-03-12T02:57:56;5.20;99.90
43679;DHT22;29279;50.858;4.392;2023-03-12T03:00:22;5.30;99.90
43679;DHT22;29279;50.858;4.392;2023-03-12T03:02:48;5.20;99.90
43679;DHT22;29279;50.858;4.392;2023-03-12T03:05:13;5.20;99.90
43679;DHT22;29279;50.858;4.392;2023-03-12T03:07:39;5.10;99.90
43679;DHT22;29279;50.858;4.392;2023-03-12T03:10:05;5.20;99.90
43679;DHT22;29279;50.858;4.392;2023-03-12T03:12:32;5.20;99.90
43679;DHT22;29279;50.858;4.392;2023-03-12T03:14:58;5.30;99.90
43679;DHT22;29279;50.858;4.392;2023-03-12T03:17:24;5.30;99.90
43679;DHT22;29279;50.858;4.392;2023-03-12T03:19:51;5.40;99.90
43679;DHT22;29279;50.858;4.392;2023-03-12T03:22:18;5.40;99.90
43679;DHT22;29279;50.858;4.392;2023-03-12T03:24:44;5.40;99.90
43679;DHT22;29279;50.858;4.392;2023-03-12T03:27:10;5.50;99.90
43679;DHT22;29279;50.858;4.392;2023-03-12T03:29:36;5.60;99.90
43679;DHT22;29279;50.858;4.392;2023-03-12T03:32:02;5.60;99.90
43679;DHT22;29279;50.858;4.392;2023-03-12T03:34:27;5.60;99.90
43679;DHT22;29279;50.858;4.392;2023-03-12T03:36:53;5.60;99.90
43679;DHT22;29279;50.858;4.392;2023-03-12T03:39:19;5.60;99.90
43679;DHT22;29279;50.858;4.392;2023-03-12T03:41:44;5.70;99.90
43679;DHT22;29279;50.858;4.392;2023-03-12T03:44:12;5.70;99.90
43679;DHT22;29279;50.858;4.392;2023-03-12T03:46:38;5.70;99.90
43679;DHT22;29279;50.858;4.392;2023-03-12T03:49:04;5.70;99.90
43679;DHT22;29279;50.858;4.392;2023-03-12T03:51:30;5.50;99.90
43679;DHT22;29279;50.858;4.392;2023-03-12T03:53:58;5.40;99.90
43679;DHT22;29279;50.858;4.392;2023-03-12T03:56:25;5.70;99.90
43679;DHT22;29279;50.858;4.392;2023-03-12T03:58:51;5.80;99.90
43679;DHT22;29279;50.858;4.392;2023-03-12T04:01:17;5.70;99.90
43679;DHT22;29279;50.858;4.392;2023-03-12T04:03:43;5.90;99.90
43679;DHT22;29279;50.858;4.392;2023-03-12T04:06:08;5.80;99.90
43679;DHT22;29279;50.858;4.392;2023-03-12T04:08:35;5.90;99.90
43679;DHT22;29279;50.858;4.392;2023-03-12T04:11:12;5.90;99.90
43679;DHT22;29279;50.858;4.392;2023-03-12T04:13:39;5.90;99.90
43679;DHT22;29279;50.858;4.392;2023-03-12T04:16:05;6.00;99.90
43679;DHT22;29279;50.858;4.392;2023-03-12T04:18:31;6.10;99.90
43679;DHT22;29279;50.858;4.392;2023-03-12T04:20:57;6.20;99.90
43679;DHT22;29279;50.858;4.392;2023-03-12T04:23:22;6.30;99.90
43679;DHT22;29279;50.858;4.392;2023-03-12T04:25:48;6.40;99.90
43679;DHT22;29279;50.858;4.392;2023-03-12T04:28:14;6.30;99.90
43679;DHT22;29279;50.858;4.392;2023-03-12T04:30:39;6.30;99.90
43679;DHT22;29279;50.858;4.392;2023-03-12T04:33:06;6.30;99.90
43679;DHT22;29279;50.858;4.392;2023-03-12T04:35:32;6.50;99.90
43679;DHT22;29279;50.858;4.392;2023-03-12T04:37:59;6.50;99.90
43679;DHT22;29279;50.858;4.392;2023-03-12T04:40:25;6.50;99.90
43679;DHT22;29279;50.858;4.392;2023-03-12T04:42:50;6.60;99.90
43679;DHT22;29279;50.858;4.392;2023-03-12T04:45:16;6.60;99.90
43679;DHT22;29279;50.858;4.392;2023-03-12T04:47:42;6.50;99.90
43679;DHT22;29279;50.858;4.392;2023-03-12T04:50:08;6.50;99.90
43679;DHT22;29279;50.858;4.392;2023-03-12T04:52:34;6.60;99.90
43679;DHT22;29279;50.858;4.392;2023-03-12T04:55:00;6.50;99.90
43679;DHT22;29279;50.858;4.392;2023-03-12T04:57:26;6.50;99.90
43679;DHT22;29279;50.858;4.392;2023-03-12T04:59:51;6.40;99.90
43679;DHT22;29279;50.858;4.392;2023-03-12T05:02:17;6.30;99.90
43679;DHT22;29279;50.858;4.392;2023-03-12T05:04:43;6.40;99.90
43679;DHT22;29279;50.858;4.392;2023-03-12T05:07:09;6.30;99.90
43679;DHT22;29279;50.858;4.392;2023-03-12T05:09:34;6.30;99.90
43679;DHT22;29279;50.858;4.392;2023-03-12T05:12:00;6.40;99.90
43679;DHT22;29279;50.858;4.392;2023-03-12T05:14:26;6.40;99.90
43679;DHT22;29279;50.858;4.392;2023-03-12T05:16:51;6.40;99.90
43679;DHT22;29279;50.858;4.392;2023-03-12T05:19:17;6.30;99.90
43679;DHT22;29279;50.858;4.392;2023-03-12T05:21:43;6.20;99.90
43679;DHT22;29279;50.858;4.392;2023-03-12T05:24:10;6.30;99.90
43679;DHT22;29279;50.858;4.392;2023-03-12T05:26:36;6.30;99.90
43679;DHT22;29279;50.858;4.392;2023-03-12T05:29:03;6.30;99.90
43679;DHT22;29279;50.858;4.392;2023-03-12T05:31:30;6.40;99.90
43679;DHT22;29279;50.858;4.392;2023-03-12T05:34:00;6.40;99.90
43679;DHT22;29279;50.858;4.392;2023-03-12T05:36:26;6.50;99.90
43679;DHT22;29279;50.858;4.392;2023-03-12T05:38:52;6.50;99.90
43679;DHT22;29279;50.858;4.392;2023-03-12T05:43:45;6.70;99.90
43679;DHT22;29279;50.858;4.392;2023-03-12T05:46:11;6.50;99.90
43679;DHT22;29279;50.858;4.392;2023-03-12T05:48:37;6.60;99.90
43679;DHT22;29279;50.858;4.392;2023-03-12T05:51:03;6.60;99.90
43679;DHT22;29279;50.858;4.392;2023-03-12T05:53:28;6.60;99.90
43679;DHT22;29279;50.858;4.392;2023-03-12T05:55:54;6.60;99.90
43679;DHT22;29279;50.858;4.392;2023-03-12T05:58:20;6.80;99.90
43679;DHT22;29279;50.858;4.392;2023-03-12T06:00:45;6.80;99.90
43679;DHT22;29279;50.858;4.392;2023-03-12T06:03:11;6.80;99.90
43679;DHT22;29279;50.858;4.392;2023-03-12T06:05:37;6.80;99.90
43679;DHT22;29279;50.858;4.392;2023-03-12T06:08:04;6.80;99.90
43679;DHT22;29279;50.858;4.392;2023-03-12T06:10:30;6.90;99.90
43679;DHT22;29279;50.858;4.392;2023-03-12T06:12:56;7.00;99.90
43679;DHT22;29279;50.858;4.392;2023-03-12T06:15:22;7.00;99.90
43679;DHT22;29279;50.858;4.392;2023-03-12T06:17:47;7.10;99.90
43679;DHT22;29279;50.858;4.392;2023-03-12T06:20:13;7.10;99.90
43679;DHT22;29279;50.858;4.392;2023-03-12T06:22:39;7.10;99.90
43679;DHT22;29279;50.858;4.392;2023-03-12T06:25:05;7.10;99.90
43679;DHT22;29279;50.858;4.392;2023-03-12T06:27:31;7.10;99.90
43679;DHT22;29279;50.858;4.392;2023-03-12T06:29:57;7.20;99.90
43679;DHT22;29279;50.858;4.392;2023-03-12T06:32:23;7.30;99.90
43679;DHT22;29279;50.858;4.392;2023-03-12T06:34:49;7.30;99.90
43679;DHT22;29279;50.858;4.392;2023-03-12T06:37:14;7.30;99.90
43679;DHT22;29279;50.858;4.392;2023-03-12T06:39:40;7.20;99.90
43679;DHT22;29279;50.858;4.392;2023-03-12T06:42:06;7.20;99.90
43679;DHT22;29279;50.858;4.392;2023-03-12T06:44:32;7.10;99.90
43679;DHT22;29279;50.858;4.392;2023-03-12T06:46:57;7.20;99.90
43679;DHT22;29279;50.858;4.392;2023-03-12T06:49:23;7.20;99.90
43679;DHT22;29279;50.858;4.392;2023-03-12T06:51:49;7.20;99.90
43679;DHT22;29279;50.858;4.392;2023-03-12T06:54:15;7.30;99.90
43679;DHT22;29279;50.858;4.392;2023-03-12T06:56:41;7.40;99.90
43679;DHT22;29279;50.858;4.392;2023-03-12T06:59:07;7.40;99.90
43679;DHT22;29279;50.858;4.392;2023-03-12T07:01:32;7.50;99.90
43679;DHT22;29279;50.858;4.392;2023-03-12T07:03:58;7.50;99.90
43679;DHT22;29279;50.858;4.392;2023-03-12T07:06:24;7.50;99.90
43679;DHT22;29279;50.858;4.392;2023-03-12T07:08:50;7.50;99.90
43679;DHT22;29279;50.858;4.392;2023-03-12T07:11:16;7.50;99.90
43679;DHT22;29279;50.858;4.392;2023-03-12T07:13:43;7.60;99.90
43679;DHT22;29279;50.858;4.392;2023-03-12T07:16:09;7.70;99.90
43679;DHT22;29279;50.858;4.392;2023-03-12T07:18:35;7.80;99.90
43679;DHT22;29279;50.858;4.392;2023-03-12T07:21:04;7.80;99.90
43679;DHT22;29279;50.858;4.392;2023-03-12T07:23:30;7.90;99.90
43679;DHT22;29279;50.858;4.392;2023-03-12T07:25:55;7.80;99.90
43679;DHT22;29279;50.858;4.392;2023-03-12T07:28:21;7.90;99.90
43679;DHT22;29279;50.858;4.392;2023-03-12T07:30:47;7.90;99.90
43679;DHT22;29279;50.858;4.392;2023-03-12T07:33:19;7.90;99.90
43679;DHT22;29279;50.858;4.392;2023-03-12T07:35:46;7.90;99.90
43679;DHT22;29279;50.858;4.392;2023-03-12T07:38:12;8.00;99.90
43679;DHT22;29279;50.858;4.392;2023-03-12T07:40:40;8.10;99.90
43679;DHT22;29279;50.858;4.392;2023-03-12T07:43:06;8.10;99.90
43679;DHT22;29279;50.858;4.392;2023-03-12T07:45:38;8.20;99.90
43679;DHT22;29279;50.858;4.392;2023-03-12T07:48:05;8.30;99.90
43679;DHT22;29279;50.858;4.392;2023-03-12T07:50:31;8.30;99.90
43679;DHT22;29279;50.858;4.392;2023-03-12T07:52:57;8.50;99.90
43679;DHT22;29279;50.858;4.392;2023-03-12T07:55:22;8.50;99.90
43679;DHT22;29279;50.858;4.392;2023-03-12T07:57:48;8.60;99.90
43679;DHT22;29279;50.858;4.392;2023-03-12T08:00:14;8.70;99.90
43679;DHT22;29279;50.858;4.392;2023-03-12T08:02:41;8.70;99.90
43679;DHT22;29279;50.858;4.392;2023-03-12T08:05:07;8.90;99.90
43679;DHT22;29279;50.858;4.392;2023-03-12T08:07:33;8.90;99.90
43679;DHT22;29279;50.858;4.392;2023-03-12T08:10:03;9.00;99.90
43679;DHT22;29279;50.858;4.392;2023-03-12T08:12:29;9.00;99.90
43679;DHT22;29279;50.858;4.392;2023-03-12T08:14:55;9.00;99.90
43679;DHT22;29279;50.858;4.392;2023-03-12T08:17:21;8.90;99.90
43679;DHT22;29279;50.858;4.392;2023-03-12T08:19:47;8.90;99.90
43679;DHT22;29279;50.858;4.392;2023-03-12T08:22:13;8.90;99.90
43679;DHT22;29279;50.858;4.392;2023-03-12T08:24:38;9.00;99.90
43679;DHT22;29279;50.858;4.392;2023-03-12T08:27:04;9.00;99.90
43679;DHT22;29279;50.858;4.392;2023-03-12T08:29:30;9.10;99.90
43679;DHT22;29279;50.858;4.392;2023-03-12T08:31:57;9.20;99.90
43679;DHT22;29279;50.858;4.392;2023-03-12T08:34:23;9.30;99.90
43679;DHT22;29279;50.858;4.392;2023-03-12T08:36:48;9.50;99.90
43679;DHT22;29279;50.858;4.392;2023-03-12T08:39:14;9.60;99.90
43679;DHT22;29279;50.858;4.392;2023-03-12T08:41:40;9.70;99.90
43679;DHT22;29279;50.858;4.392;2023-03-12T08:44:06;9.80;99.90
43679;DHT22;29279;50.858;4.392;2023-03-12T08:46:32;10.00;99.90
43679;DHT22;29279;50.858;4.392;2023-03-12T08:48:57;10.20;99.90
43679;DHT22;29279;50.858;4.392;2023-03-12T08:51:23;10.30;99.90
43679;DHT22;29279;50.858;4.392;2023-03-12T08:53:48;10.40;99.90
43679;DHT22;29279;50.858;4.392;2023-03-12T08:56:14;10.40;99.90
43679;DHT22;29279;50.858;4.392;2023-03-12T08:58:40;10.50;99.90
43679;DHT22;29279;50.858;4.392;2023-03-12T09:01:11;10.60;99.90
43679;DHT22;29279;50.858;4.392;2023-03-12T09:03:37;10.70;99.90
43679;DHT22;29279;50.858;4.392;2023-03-12T09:06:05;10.70;99.90
43679;DHT22;29279;50.858;4.392;2023-03-12T09:08:31;10.70;99.90
43679;DHT22;29279;50.858;4.392;2023-03-12T09:10:58;10.70;99.90
43679;DHT22;29279;50.858;4.392;2023-03-12T09:13:24;10.90;99.90
43679;DHT22;29279;50.858;4.392;2023-03-12T09:15:50;11.10;99.90
43679;DHT22;29279;50.858;4.392;2023-03-12T09:18:15;11.20;99.90
43679;DHT22;29279;50.858;4.392;2023-03-12T09:20:42;11.10;99.90
43679;DHT22;29279;50.858;4.392;2023-03-12T09:23:07;11.30;99.90
43679;DHT22;29279;50.858;4.392;2023-03-12T09:25:33;11.60;99.90
43679;DHT22;29279;50.858;4.392;2023-03-12T09:27:59;11.70;99.90
43679;DHT22;29279;50.858;4.392;2023-03-12T09:30:26;11.70;99.90
43679;DHT22;29279;50.858;4.392;2023-03-12T09:32:54;11.70;99.90
43679;DHT22;29279;50.858;4.392;2023-03-12T09:35:20;12.10;99.90
43679;DHT22;29279;50.858;4.392;2023-03-12T09:37:49;12.50;99.90
43679;DHT22;29279;50.858;4.392;2023-03-12T09:40:18;12.90;99.90
43679;DHT22;29279;50.858;4.392;2023-03-12T09:45:43;13.80;99.90
43679;DHT22;29279;50.858;4.392;2023-03-12T09:48:36;13.50;99.90
43679;DHT22;29279;50.858;4.392;2023-03-12T09:51:08;13.80;99.90
43679;DHT22;29279;50.858;4.392;2023-03-12T09:53:55;13.40;99.90
43679;DHT22;29279;50.858;4.392;2023-03-12T09:56:22;13.20;99.90
43679;DHT22;29279;50.858;4.392;2023-03-12T09:58:48;13.30;99.90
43679;DHT22;29279;50.858;4.392;2023-03-12T10:06:46;13.60;99.90
43679;DHT22;29279;50.858;4.392;2023-03-12T10:20:59;12.50;99.90
43679;DHT22;29279;50.858;4.392;2023-03-12T10:26:03;12.50;99.90
43679;DHT22;29279;50.858;4.392;2023-03-12T10:28:45;12.70;99.90
43679;DHT22;29279;50.858;4.392;2023-03-12T10:31:56;13.00;99.90
43679;DHT22;29279;50.858;4.392;2023-03-12T10:39:48;13.60;99.90
43679;DHT22;29279;50.858;4.392;2023-03-12T10:42:19;13.70;99.90
43679;DHT22;29279;50.858;4.392;2023-03-12T10:44:55;13.80;99.90
43679;DHT22;29279;50.858;4.392;2023-03-12T10:47:37;14.20;99.90
43679;DHT22;29279;50.858;4.392;2023-03-12T10:50:18;14.50;99.90
43679;DHT22;29279;50.858;4.392;2023-03-12T10:52:46;14.50;99.90
43679;DHT22;29279;50.858;4.392;2023-03-12T10:55:23;14.30;99.90
43679;DHT22;29279;50.858;4.392;2023-03-12T10:57:51;14.00;99.90
43679;DHT22;29279;50.858;4.392;2023-03-12T11:00:23;13.90;99.90
43679;DHT22;29279;50.858;4.392;2023-03-12T11:03:16;14.10;99.90
43679;DHT22;29279;50.858;4.392;2023-03-12T11:05:48;14.20;99.90
43679;DHT22;29279;50.858;4.392;2023-03-12T11:08:34;14.10;99.90
43679;DHT22;29279;50.858;4.392;2023-03-12T11:11:01;13.90;99.90
43679;DHT22;29279;50.858;4.392;2023-03-12T11:13:30;13.80;99.90
43679;DHT22;29279;50.858;4.392;2023-03-12T11:18:58;13.70;99.90
43679;DHT22;29279;50.858;4.392;2023-03-12T11:21:26;13.70;99.90
43679;DHT22;29279;50.858;4.392;2023-03-12T11:26:24;13.60;99.90
43679;DHT22;29279;50.858;4.392;2023-03-12T11:28:54;13.40;99.90
43679;DHT22;29279;50.858;4.392;2023-03-12T11:31:28;13.30;99.90
43679;DHT22;29279;50.858;4.392;2023-03-12T11:34:01;13.10;99.90
43679;DHT22;29279;50.858;4.392;2023-03-12T11:37:18;12.90;99.90
43679;DHT22;29279;50.858;4.392;2023-03-12T11:39:42;13.30;99.90
43679;DHT22;29279;50.858;4.392;2023-03-12T11:51:12;14.10;99.90
43679;DHT22;29279;50.858;4.392;2023-03-12T11:59:47;13.40;99.90
43679;DHT22;29279;50.858;4.392;2023-03-12T12:02:59;14.00;99.90
43679;DHT22;29279;50.858;4.392;2023-03-12T12:14:14;13.20;99.90
43679;DHT22;29279;50.858;4.392;2023-03-12T12:27:23;15.40;99.90
43679;DHT22;29279;50.858;4.392;2023-03-12T12:35:36;15.40;99.90
43679;DHT22;29279;50.858;4.392;2023-03-12T12:38:27;14.90;99.90
43679;DHT22;29279;50.858;4.392;2023-03-12T12:41:07;14.60;99.90
43679;DHT22;29279;50.858;4.392;2023-03-12T12:43:42;14.40;99.90
43679;DHT22;29279;50.858;4.392;2023-03-12T12:48:45;14.50;99.90
43679;DHT22;29279;50.858;4.392;2023-03-12T12:51:14;14.60;99.90
43679;DHT22;29279;50.858;4.392;2023-03-12T12:56:27;14.10;99.90
43679;DHT22;29279;50.858;4.392;2023-03-12T13:01:52;13.90;99.90
43679;DHT22;29279;50.858;4.392;2023-03-12T13:04:31;13.80;99.90
43679;DHT22;29279;50.858;4.392;2023-03-12T13:07:03;13.60;99.90
43679;DHT22;29279;50.858;4.392;2023-03-12T13:09:49;13.90;99.90
43679;DHT22;29279;50.858;4.392;2023-03-12T13:12:20;14.40;99.90
43679;DHT22;29279;50.858;4.392;2023-03-12T13:14:51;14.20;99.90
43679;DHT22;29279;50.858;4.392;2023-03-12T13:17:24;14.10;99.90
43679;DHT22;29279;50.858;4.392;2023-03-12T13:20:05;14.20;99.90
43679;DHT22;29279;50.858;4.392;2023-03-12T13:22:57;14.30;99.90
43679;DHT22;29279;50.858;4.392;2023-03-12T13:28:14;14.90;99.90
43679;DHT22;29279;50.858;4.392;2023-03-12T13:30:49;15.10;99.90
43679;DHT22;29279;50.858;4.392;2023-03-12T13:33:17;15.50;99.90
43679;DHT22;29279;50.858;4.392;2023-03-12T13:36:30;15.30;99.90
43679;DHT22;29279;50.858;4.392;2023-03-12T13:38:58;15.40;99.90
43679;DHT22;29279;50.858;4.392;2023-03-12T13:41:35;15.60;99.90
43679;DHT22;29279;50.858;4.392;2023-03-12T13:49:53;15.90;99.90
43679;DHT22;29279;50.858;4.392;2023-03-12T13:52:45;15.80;99.90
43679;DHT22;29279;50.858;4.392;2023-03-12T13:57:44;16.00;99.90
43679;DHT22;29279;50.858;4.392;2023-03-12T14:00:14;15.20;99.90
43679;DHT22;29279;50.858;4.392;2023-03-12T14:03:03;14.70;99.90
43679;DHT22;29279;50.858;4.392;2023-03-12T14:05:34;14.30;99.90
43679;DHT22;29279;50.858;4.392;2023-03-12T14:08:21;14.30;99.90
43679;DHT22;29279;50.858;4.392;2023-03-12T14:14:11;14.10;99.90
43679;DHT22;29279;50.858;4.392;2023-03-12T14:16:42;13.80;99.90
43679;DHT22;29279;50.858;4.392;2023-03-12T14:19:18;13.50;99.90
43679;DHT22;29279;50.858;4.392;2023-03-12T14:21:48;13.40;99.90
43679;DHT22;29279;50.858;4.392;2023-03-12T14:26:56;13.30;99.90
43679;DHT22;29279;50.858;4.392;2023-03-12T14:29:34;13.40;99.90
43679;DHT22;29279;50.858;4.392;2023-03-12T14:32:11;13.30;99.90
43679;DHT22;29279;50.858;4.392;2023-03-12T14:34:41;13.40;99.90
43679;DHT22;29279;50.858;4.392;2023-03-12T14:37:14;13.40;99.90
43679;DHT22;29279;50.858;4.392;2023-03-12T14:39:53;13.80;99.90
43679;DHT22;29279;50.858;4.392;2023-03-12T14:42:38;14.30;99.90
43679;DHT22;29279;50.858;4.392;2023-03-12T14:47:40;14.70;99.90
43679;DHT22;29279;50.858;4.392;2023-03-12T14:50:19;14.40;99.90
43679;DHT22;29279;50.858;4.392;2023-03-12T14:52:45;14.10;99.90
43679;DHT22;29279;50.858;4.392;2023-03-12T14:55:13;14.00;99.90
43679;DHT22;29279;50.858;4.392;2023-03-12T14:57:39;14.10;99.90
43679;DHT22;29279;50.858;4.392;2023-03-12T15:00:06;14.30;99.90
43679;DHT22;29279;50.858;4.392;2023-03-12T15:02:40;14.60;99.90
43679;DHT22;29279;50.858;4.392;2023-03-12T15:05:16;14.40;99.90
43679;DHT22;29279;50.858;4.392;2023-03-12T15:07:43;14.20;99.90
43679;DHT22;29279;50.858;4.392;2023-03-12T15:10:22;14.00;99.90
43679;DHT22;29279;50.858;4.392;2023-03-12T15:12:51;13.80;99.90
43679;DHT22;29279;50.858;4.392;2023-03-12T15:15:31;13.50;99.90
43679;DHT22;29279;50.858;4.392;2023-03-12T15:18:03;13.30;99.90
43679;DHT22;29279;50.858;4.392;2023-03-12T15:20:29;13.20;99.90
43679;DHT22;29279;50.858;4.392;2023-03-12T15:22:55;13.20;99.90
43679;DHT22;29279;50.858;4.392;2023-03-12T15:25:27;13.20;99.90
43679;DHT22;29279;50.858;4.392;2023-03-12T15:30:32;13.30;99.90
43679;DHT22;29279;50.858;4.392;2023-03-12T15:33:07;13.20;99.90
43679;DHT22;29279;50.858;4.392;2023-03-12T15:35:57;13.10;99.90
43679;DHT22;29279;50.858;4.392;2023-03-12T15:38:20;13.10;99.90
43679;DHT22;29279;50.858;4.392;2023-03-12T15:40:49;13.10;99.90
43679;DHT22;29279;50.858;4.392;2023-03-12T15:43:21;13.00;99.90
43679;DHT22;29279;50.858;4.392;2023-03-12T15:45:47;13.00;99.90
43679;DHT22;29279;50.858;4.392;2023-03-12T15:48:27;13.00;99.90
43679;DHT22;29279;50.858;4.392;2023-03-12T15:50:54;13.10;99.90
43679;DHT22;29279;50.858;4.392;2023-03-12T15:56:19;13.10;99.90
43679;DHT22;29279;50.858;4.392;2023-03-12T15:58:45;13.00;99.90
43679;DHT22;29279;50.858;4.392;2023-03-12T16:01:16;13.00;99.90
43679;DHT22;29279;50.858;4.392;2023-03-12T16:03:43;12.90;99.90
43679;DHT22;29279;50.858;4.392;2023-03-12T16:06:13;12.80;99.90
43679;DHT22;29279;50.858;4.392;2023-03-12T16:08:57;12.80;99.90
43679;DHT22;29279;50.858;4.392;2023-03-12T16:11:30;12.80;99.90
43679;DHT22;29279;50.858;4.392;2023-03-12T16:14:09;12.80;99.90
43679;DHT22;29279;50.858;4.392;2023-03-12T16:16:38;12.90;99.90
43679;DHT22;29279;50.858;4.392;2023-03-12T16:19:12;13.00;99.90
43679;DHT22;29279;50.858;4.392;2023-03-12T16:21:38;13.00;99.90
43679;DHT22;29279;50.858;4.392;2023-03-12T16:24:04;13.00;99.90
43679;DHT22;29279;50.858;4.392;2023-03-12T16:26:35;12.90;99.90
43679;DHT22;29279;50.858;4.392;2023-03-12T16:29:01;12.80;99.90
43679;DHT22;29279;50.858;4.392;2023-03-12T16:31:31;12.80;99.90
43679;DHT22;29279;50.858;4.392;2023-03-12T16:33:56;12.70;99.90
43679;DHT22;29279;50.858;4.392;2023-03-12T16:36:22;12.70;99.90
43679;DHT22;29279;50.858;4.392;2023-03-12T16:38:48;12.70;99.90
43679;DHT22;29279;50.858;4.392;2023-03-12T16:41:16;12.70;99.90
43679;DHT22;29279;50.858;4.392;2023-03-12T16:43:45;12.70;99.90
43679;DHT22;29279;50.858;4.392;2023-03-12T16:46:18;12.60;99.90
43679;DHT22;29279;50.858;4.392;2023-03-12T16:48:50;12.70;99.90
43679;DHT22;29279;50.858;4.392;2023-03-12T16:51:18;12.70;99.90
43679;DHT22;29279;50.858;4.392;2023-03-12T16:53:44;12.60;99.90
43679;DHT22;29279;50.858;4.392;2023-03-12T16:56:18;12.60;99.90
43679;DHT22;29279;50.858;4.392;2023-03-12T16:58:46;12.50;99.90
43679;DHT22;29279;50.858;4.392;2023-03-12T17:01:14;12.50;99.90
43679;DHT22;29279;50.858;4.392;2023-03-12T17:03:42;12.50;99.90
43679;DHT22;29279;50.858;4.392;2023-03-12T17:06:18;12.60;99.90
43679;DHT22;29279;50.858;4.392;2023-03-12T17:08:45;12.70;99.90
43679;DHT22;29279;50.858;4.392;2023-03-12T17:11:22;12.60;99.90
43679;DHT22;29279;50.858;4.392;2023-03-12T17:14:02;12.50;99.90
43679;DHT22;29279;50.858;4.392;2023-03-12T17:16:28;12.40;99.90
43679;DHT22;29279;50.858;4.392;2023-03-12T17:18:54;12.40;99.90
43679;DHT22;29279;50.858;4.392;2023-03-12T17:21:20;12.40;99.90
43679;DHT22;29279;50.858;4.392;2023-03-12T17:23:48;12.30;99.90
43679;DHT22;29279;50.858;4.392;2023-03-12T17:26:15;12.20;99.90
43679;DHT22;29279;50.858;4.392;2023-03-12T17:28:41;12.30;99.90
43679;DHT22;29279;50.858;4.392;2023-03-12T17:31:07;12.30;99.90
43679;DHT22;29279;50.858;4.392;2023-03-12T17:33:32;12.40;99.90
43679;DHT22;29279;50.858;4.392;2023-03-12T17:36:04;12.40;99.90
43679;DHT22;29279;50.858;4.392;2023-03-12T17:38:30;12.40;99.90
43679;DHT22;29279;50.858;4.392;2023-03-12T17:40:56;12.50;99.90
43679;DHT22;29279;50.858;4.392;2023-03-12T17:43:22;12.60;99.90
43679;DHT22;29279;50.858;4.392;2023-03-12T17:45:48;12.60;99.90
43679;DHT22;29279;50.858;4.392;2023-03-12T17:48:14;12.60;99.90